createdAt,value
2022-10-03T00:02:48.882Z,8.61
2022-10-03T00:05:37.740Z,8.62
2022-10-03T00:08:39.930Z,8.62
2022-10-03T00:11:29.093Z,8.61
2022-10-03T00:14:30.223Z,8.60
2022-10-03T00:17:10.369Z,8.58
2022-10-03T00:19:56.244Z,8.57
2022-10-03T00:22:52.015Z,8.57
2022-10-03T00:25:41.989Z,8.55
2022-10-03T00:28:40.300Z,8.55
2022-10-03T00:31:17.546Z,8.58
2022-10-03T00:34:19.236Z,8.58
2022-10-03T00:37:14.610Z,8.59
2022-10-03T00:40:06.711Z,8.60
2022-10-03T00:42:35.234Z,8.61
2022-10-03T00:45:12.227Z,8.62
2022-10-03T00:48:26.427Z,8.62
2022-10-03T00:51:00.115Z,8.63
2022-10-03T00:54:01.678Z,8.64
2022-10-03T00:56:32.006Z,8.65
2022-10-03T00:59:13.970Z,8.65
2022-10-03T01:01:49.471Z,8.64
2022-10-03T01:04:28.791Z,8.65
2022-10-03T01:07:19.858Z,8.66
2022-10-03T01:10:00.436Z,8.66
2022-10-03T01:12:55.337Z,8.66
2022-10-03T01:15:30.969Z,8.66
2022-10-03T01:18:17.716Z,8.67
2022-10-03T01:21:12.183Z,8.69
2022-10-03T01:24:17.535Z,8.70
2022-10-03T01:27:18.448Z,8.68
2022-10-03T01:30:13.386Z,8.66
2022-10-03T01:33:10.380Z,8.68
2022-10-03T01:36:12.651Z,8.69
2022-10-03T01:38:55.701Z,8.68
2022-10-03T01:41:35.594Z,8.69
2022-10-03T01:44:08.871Z,8.69
2022-10-03T01:46:47.289Z,8.68
2022-10-03T01:49:33.215Z,8.69
2022-10-03T01:52:04.935Z,8.71
2022-10-03T01:54:42.698Z,8.70
2022-10-03T01:57:46.200Z,8.71
2022-10-03T02:00:21.645Z,8.73
2022-10-03T02:03:31.639Z,8.75
2022-10-03T02:06:38.356Z,8.75
2022-10-03T02:09:48.413Z,8.74
2022-10-03T02:12:21.496Z,8.73
2022-10-03T02:15:02.100Z,8.73
2022-10-03T02:17:47.930Z,8.73
2022-10-03T02:20:28.467Z,8.74
2022-10-03T02:22:57.255Z,8.75
2022-10-03T02:25:26.407Z,8.75
2022-10-03T02:27:59.598Z,8.75
2022-10-03T02:30:56.007Z,8.76
2022-10-03T02:34:15.761Z,8.77
2022-10-03T02:37:19.285Z,8.78
2022-10-03T02:40:10.518Z,8.77
2022-10-03T02:43:05.783Z,8.78
2022-10-03T02:46:13.603Z,8.78
2022-10-03T02:48:59.355Z,8.79
2022-10-03T02:51:54.393Z,8.79
2022-10-03T02:54:50.863Z,8.78
2022-10-03T02:57:51.388Z,8.78
2022-10-03T03:00:22.731Z,8.80
2022-10-03T03:03:11.595Z,8.81
2022-10-03T03:05:58.869Z,8.82
2022-10-03T03:08:48.434Z,8.82
2022-10-03T03:11:40.362Z,8.84
2022-10-03T03:14:31.661Z,8.84
2022-10-03T03:17:33.757Z,8.84
2022-10-03T03:20:11.911Z,8.84
2022-10-03T03:22:44.882Z,8.85
2022-10-03T03:25:40.288Z,8.86
2022-10-03T03:28:19.179Z,8.86
2022-10-03T03:31:18.698Z,8.84
2022-10-03T03:34:09.002Z,8.85
2022-10-03T03:36:57.964Z,8.86
2022-10-03T03:40:08.408Z,8.87
2022-10-03T03:43:08.479Z,8.86
2022-10-03T03:45:41.405Z,8.85
2022-10-03T03:48:43.929Z,8.83
2022-10-03T03:51:34.673Z,8.81
2022-10-03T03:54:27.009Z,8.78
2022-10-03T03:57:32.740Z,8.73
2022-10-03T04:00:12.246Z,8.66
2022-10-03T04:03:07.138Z,8.65
2022-10-03T04:06:10.445Z,8.64
2022-10-03T04:09:20.688Z,8.63
2022-10-03T04:12:17.959Z,8.63
2022-10-03T04:15:23.291Z,8.64
2022-10-03T04:19:01.026Z,8.67
2022-10-03T04:22:40.144Z,8.69
2022-10-03T04:25:55.058Z,8.70
2022-10-03T04:29:15.072Z,8.72
2022-10-03T04:32:08.943Z,8.76
2022-10-03T04:35:24.124Z,8.79
2022-10-03T04:38:32.039Z,8.82
2022-10-03T04:41:24.594Z,8.83
2022-10-03T04:44:19.780Z,8.84
2022-10-03T04:50:42.600Z,8.82
2022-10-03T04:54:20.664Z,8.80
2022-10-03T04:57:20.599Z,8.77
2022-10-03T05:00:23.927Z,8.77
2022-10-03T05:03:48.797Z,8.77
2022-10-03T05:07:04.747Z,8.78
2022-10-03T05:10:21.261Z,8.79
2022-10-03T05:13:50.658Z,8.79
2022-10-03T05:16:50.986Z,8.80
2022-10-03T05:19:42.435Z,8.82
2022-10-03T05:22:31.813Z,8.84
2022-10-03T05:25:30.607Z,8.86
2022-10-03T05:28:43.726Z,8.87
2022-10-03T05:31:42.676Z,8.90
2022-10-03T05:34:46.712Z,8.93
2022-10-03T05:37:49.433Z,8.95
2022-10-03T05:40:59.079Z,8.97
2022-10-03T05:44:08.507Z,8.98
2022-10-03T05:47:08.956Z,9.03
2022-10-03T05:50:37.456Z,9.06
2022-10-03T05:53:37.793Z,9.08
2022-10-03T05:56:31.950Z,9.09
2022-10-03T05:59:55.095Z,9.11
2022-10-03T06:02:56.923Z,9.16
2022-10-03T06:06:39.441Z,9.20
2022-10-03T06:09:50.658Z,9.25
2022-10-03T06:13:22.450Z,9.28
2022-10-03T06:16:06.521Z,9.33
2022-10-03T06:19:07.203Z,9.37
2022-10-03T06:22:02.670Z,9.40
2022-10-03T06:25:33.367Z,9.43
2022-10-03T06:28:35.680Z,9.46
2022-10-03T06:31:59.408Z,9.52
2022-10-03T06:35:04.163Z,9.54
2022-10-03T06:38:12.601Z,9.58
2022-10-03T06:41:06.510Z,9.61
2022-10-03T06:44:15.973Z,9.63
2022-10-03T06:47:18.607Z,9.65
2022-10-03T06:50:45.866Z,9.66
2022-10-03T06:53:50.449Z,9.64
2022-10-03T06:56:57.635Z,9.61
2022-10-03T07:00:15.350Z,9.58
2022-10-03T07:03:22.647Z,9.53
2022-10-03T07:06:22.783Z,9.50
2022-10-03T07:09:18.811Z,9.49
2022-10-03T07:12:33.471Z,9.47
2022-10-03T07:15:59.104Z,9.47
2022-10-03T07:19:28.289Z,9.44
2022-10-03T07:22:20.039Z,9.44
2022-10-03T07:25:22.279Z,9.43
2022-10-03T07:28:39.400Z,9.46
2022-10-03T07:32:19.518Z,9.50
2022-10-03T07:35:24.093Z,9.54
2022-10-03T07:38:58.132Z,9.60
2022-10-03T07:42:00.583Z,9.63
2022-10-03T07:45:06.505Z,9.68
2022-10-03T07:47:55.743Z,9.72
2022-10-03T07:51:06.079Z,9.77
2022-10-03T07:54:05.409Z,9.91
2022-10-03T07:57:03.737Z,10.02
2022-10-03T08:00:02.852Z,10.13
2022-10-03T08:02:56.677Z,10.20
2022-10-03T08:05:53.611Z,10.23
2022-10-03T08:09:02.430Z,10.23
2022-10-03T08:12:10.214Z,10.23
2022-10-03T08:15:06.674Z,10.26
2022-10-03T08:18:12.593Z,10.30
2022-10-03T08:21:27.781Z,10.33
2022-10-03T08:24:24.428Z,10.34
2022-10-03T08:27:30.417Z,10.36
2022-10-03T08:30:37.904Z,10.39
2022-10-03T08:33:48.258Z,10.41
2022-10-03T08:37:14.115Z,10.45
2022-10-03T08:40:19.194Z,10.53
2022-10-03T08:43:36.130Z,10.58
2022-10-03T08:46:54.594Z,10.61
2022-10-03T08:49:51.648Z,10.63
2022-10-03T08:53:12.284Z,10.63
2022-10-03T08:56:18.272Z,10.62
2022-10-03T09:00:11.025Z,10.63
2022-10-03T09:03:42.897Z,10.67
2022-10-03T09:10:39.381Z,10.61
2022-10-03T09:13:28.219Z,10.61
2022-10-03T09:16:23.850Z,10.64
2022-10-03T09:19:48.429Z,10.64
2022-10-03T09:22:51.842Z,10.65
2022-10-03T09:25:44.578Z,10.68
2022-10-03T09:28:39.611Z,10.64
2022-10-03T09:31:51.648Z,10.59
2022-10-03T09:35:01.751Z,10.53
2022-10-03T09:38:13.436Z,10.44
2022-10-03T09:41:26.561Z,10.36
2022-10-03T09:44:59.380Z,10.31
2022-10-03T09:48:04.079Z,10.30
2022-10-03T09:51:22.325Z,10.30
2022-10-03T09:54:27.058Z,10.32
2022-10-03T09:57:54.556Z,10.34
2022-10-03T10:00:56.777Z,10.37
2022-10-03T10:03:42.064Z,10.40
2022-10-03T10:06:25.216Z,10.44
2022-10-03T10:09:12.105Z,10.48
2022-10-03T10:12:28.730Z,10.51
2022-10-03T10:15:39.299Z,10.54
2022-10-03T10:19:20.055Z,10.59
2022-10-03T10:22:03.966Z,10.66
2022-10-03T10:25:06.171Z,10.70
2022-10-03T10:28:01.813Z,10.74
2022-10-03T10:30:59.037Z,10.78
2022-10-03T10:33:45.505Z,10.77
2022-10-03T10:37:46.047Z,10.72
2022-10-03T10:40:59.901Z,10.66
2022-10-03T10:43:49.311Z,10.66
2022-10-03T10:46:48.979Z,10.63
2022-10-03T10:49:25.301Z,10.61
2022-10-03T10:53:19.702Z,10.58
2022-10-03T10:56:31.045Z,10.51
2022-10-03T10:59:55.367Z,10.44
2022-10-03T11:02:54.953Z,10.44
2022-10-03T11:05:48.529Z,10.51
2022-10-03T11:08:58.312Z,10.58
2022-10-03T11:11:54.795Z,10.63
2022-10-03T11:14:35.106Z,10.66
2022-10-03T11:17:58.633Z,10.65
2022-10-03T11:21:11.560Z,10.66
2022-10-03T11:24:28.474Z,10.72
2022-10-03T11:27:22.437Z,11.24
2022-10-03T11:30:27.305Z,12.09
2022-10-03T11:33:16.248Z,12.71
2022-10-03T11:36:13.206Z,13.04
2022-10-03T11:39:22.755Z,12.48
2022-10-03T11:42:21.540Z,12.10
2022-10-03T11:45:03.290Z,12.01
2022-10-03T11:47:42.781Z,12.47
2022-10-03T11:50:44.595Z,12.75
2022-10-03T11:53:43.171Z,13.07
2022-10-03T11:57:06.795Z,13.20
2022-10-03T12:00:35.414Z,13.07
2022-10-03T12:03:45.323Z,13.49
2022-10-03T12:07:10.609Z,14.08
2022-10-03T12:10:07.685Z,14.67
2022-10-03T12:12:47.340Z,15.13
2022-10-03T12:15:57.170Z,15.20
2022-10-03T12:19:22.942Z,15.25
2022-10-03T12:22:39.670Z,14.78
2022-10-03T12:25:30.708Z,14.71
2022-10-03T12:28:31.003Z,15.14
2022-10-03T12:31:50.363Z,14.65
2022-10-03T12:34:53.719Z,14.22
2022-10-03T12:37:40.077Z,14.41
2022-10-03T12:40:36.049Z,15.11
2022-10-03T12:43:41.900Z,15.78
2022-10-03T12:47:37.546Z,15.68
2022-10-03T12:50:55.076Z,15.59
2022-10-03T12:53:54.155Z,15.56
2022-10-03T12:57:00.694Z,15.61
2022-10-03T13:00:16.124Z,15.15
2022-10-03T13:03:33.754Z,14.90
2022-10-03T13:07:01.710Z,14.44
2022-10-03T13:09:55.666Z,14.48
2022-10-03T13:12:46.373Z,14.69
2022-10-03T13:15:32.813Z,15.29
2022-10-03T13:18:34.986Z,15.47
2022-10-03T13:21:46.923Z,15.43
2022-10-03T13:24:42.191Z,15.60
2022-10-03T13:27:41.034Z,15.94
2022-10-03T13:30:24.302Z,15.98
2022-10-03T13:33:18.580Z,15.76
2022-10-03T13:35:59.248Z,15.39
2022-10-03T13:39:19.009Z,15.14
2022-10-03T13:41:59.872Z,14.89
2022-10-03T13:45:21.429Z,14.53
2022-10-03T13:48:04.553Z,14.15
2022-10-03T13:50:55.142Z,13.97
2022-10-03T13:53:55.758Z,13.87
2022-10-03T13:56:47.709Z,13.72
2022-10-03T13:59:49.501Z,13.63
2022-10-03T14:02:58.383Z,13.58
2022-10-03T14:05:42.913Z,13.52
2022-10-03T14:08:26.911Z,13.48
2022-10-03T14:11:24.075Z,13.35
2022-10-03T14:14:12.615Z,13.30
2022-10-03T14:17:20.225Z,13.25
2022-10-03T14:20:32.620Z,13.21
2022-10-03T14:23:28.963Z,13.10
2022-10-03T14:26:48.624Z,13.04
2022-10-03T14:29:45.160Z,12.97
2022-10-03T14:32:59.992Z,12.92
2022-10-03T14:36:00.498Z,12.86
2022-10-03T14:39:07.708Z,12.81
2022-10-03T14:42:14.937Z,12.77
2022-10-03T14:48:28.699Z,12.69
2022-10-03T14:51:24.211Z,12.66
2022-10-03T14:54:08.820Z,12.61
2022-10-03T14:57:06.790Z,12.55
2022-10-03T14:59:58.181Z,12.50
2022-10-03T15:02:50.159Z,12.44
2022-10-03T15:05:44.253Z,12.37
2022-10-03T15:08:45.397Z,12.32
2022-10-03T15:11:36.358Z,12.25
2022-10-03T15:14:14.564Z,12.20
2022-10-03T15:17:43.439Z,12.18
2022-10-03T15:20:46.957Z,12.15
2022-10-03T15:23:57.304Z,12.13
2022-10-03T15:27:03.259Z,12.06
2022-10-03T15:29:51.715Z,11.99
2022-10-03T15:32:36.477Z,11.91
2022-10-03T15:35:29.275Z,11.82
2022-10-03T15:38:35.214Z,11.75
2022-10-03T15:41:25.265Z,11.68
2022-10-03T15:44:06.706Z,11.63
2022-10-03T15:47:14.220Z,11.58
2022-10-03T15:50:08.411Z,11.51
2022-10-03T15:52:53.708Z,11.43
2022-10-03T15:55:44.251Z,11.37
2022-10-03T15:58:40.002Z,11.30
2022-10-03T16:01:51.213Z,11.22
2022-10-03T16:04:46.849Z,11.17
2022-10-03T16:07:50.952Z,11.10
2022-10-03T16:10:37.652Z,11.01
2022-10-03T16:14:01.419Z,10.94
2022-10-03T16:16:49.274Z,10.84
2022-10-03T16:19:49.716Z,10.79
2022-10-03T16:22:39.289Z,10.73
2022-10-03T16:25:36.435Z,10.64
2022-10-03T16:28:41.300Z,10.59
2022-10-03T16:32:18.302Z,10.53
2022-10-03T16:35:18.303Z,10.48
2022-10-03T16:37:54.163Z,10.45
2022-10-03T16:41:11.410Z,10.41
2022-10-03T16:44:28.109Z,10.38
2022-10-03T16:47:05.610Z,10.33
2022-10-03T16:50:15.020Z,10.28
2022-10-03T16:53:11.555Z,10.21
2022-10-03T16:59:15.305Z,10.09
2022-10-03T17:02:29.658Z,10.01
2022-10-03T17:05:32.908Z,9.94
2022-10-03T17:09:05.880Z,9.88
2022-10-03T17:11:49.289Z,9.81
2022-10-03T17:14:44.577Z,9.76
2022-10-03T17:17:26.813Z,9.70
2022-10-03T17:20:50.196Z,9.64
2022-10-03T17:24:13.605Z,9.56
2022-10-03T17:27:06.151Z,9.49
2022-10-03T17:30:04.078Z,9.44
2022-10-03T17:33:08.313Z,9.41
2022-10-03T17:36:11.301Z,9.38
2022-10-03T17:39:39.040Z,9.35
2022-10-03T17:42:59.837Z,9.30
2022-10-03T17:46:07.291Z,9.28
2022-10-03T17:49:10.091Z,9.28
2022-10-03T17:52:27.537Z,9.26
2022-10-03T17:59:20.301Z,9.24
2022-10-03T18:02:30.762Z,9.20
2022-10-03T18:05:43.936Z,9.19
2022-10-03T18:08:43.340Z,9.17
2022-10-03T18:12:09.241Z,9.16
2022-10-03T18:15:39.156Z,9.15
2022-10-03T18:18:50.283Z,9.10
2022-10-03T18:22:01.253Z,9.11
2022-10-03T18:25:33.682Z,9.11
2022-10-03T18:28:55.906Z,9.10
2022-10-03T18:32:25.366Z,9.09
2022-10-03T18:35:55.815Z,9.06
2022-10-03T18:39:18.356Z,9.01
2022-10-03T18:42:46.465Z,8.99
2022-10-03T18:49:39.757Z,8.94
2022-10-03T18:52:44.608Z,8.92
2022-10-03T19:00:14.445Z,8.88
2022-10-03T19:03:02.596Z,8.85
2022-10-03T19:06:01.277Z,8.82
2022-10-03T19:10:07.003Z,8.76
2022-10-03T19:12:51.175Z,8.70
2022-10-03T19:16:01.737Z,8.66
2022-10-03T19:18:59.987Z,8.63
2022-10-03T19:22:08.946Z,8.59
2022-10-03T19:25:05.822Z,8.53
2022-10-03T19:28:14.886Z,8.48
2022-10-03T19:31:21.719Z,8.45
2022-10-03T19:34:34.117Z,8.42
2022-10-03T19:37:14.425Z,8.38
2022-10-03T19:40:33.029Z,8.36
2022-10-03T19:43:40.903Z,8.32
2022-10-03T19:46:38.375Z,8.31
2022-10-03T19:50:16.004Z,8.28
2022-10-03T19:52:59.297Z,8.25
2022-10-03T19:55:51.421Z,8.23
2022-10-03T19:59:14.381Z,8.21
2022-10-03T20:01:55.866Z,8.20
2022-10-03T20:04:37.575Z,8.20
2022-10-03T20:07:34.157Z,8.17
2022-10-03T20:10:47.949Z,8.16
2022-10-03T20:13:48.371Z,8.17
2022-10-03T20:16:32.982Z,8.19
2022-10-03T20:20:27.186Z,8.18
2022-10-03T20:23:34.037Z,8.18
2022-10-03T20:26:42.747Z,8.18
2022-10-03T20:29:52.695Z,8.17
2022-10-03T20:32:37.100Z,8.18
2022-10-03T20:35:30.598Z,8.20
2022-10-03T20:38:38.545Z,8.23
2022-10-03T20:45:39.532Z,8.34
2022-10-03T20:48:27.953Z,8.41
2022-10-03T20:51:44.837Z,8.48
2022-10-03T20:54:32.859Z,8.56
2022-10-03T20:58:01.408Z,8.59
2022-10-03T21:00:35.851Z,8.62
2022-10-03T21:03:32.859Z,8.65
2022-10-03T21:06:27.533Z,8.70
2022-10-03T21:09:21.527Z,8.74
2022-10-03T21:12:19.678Z,8.76
2022-10-03T21:15:03.945Z,8.80
2022-10-03T21:17:59.658Z,8.83
2022-10-03T21:20:44.819Z,8.85
2022-10-03T21:23:51.299Z,8.86
2022-10-03T21:26:52.240Z,8.87
2022-10-03T21:29:40.475Z,8.86
2022-10-03T21:33:07.221Z,8.87
2022-10-03T21:35:43.586Z,8.87
2022-10-03T21:38:37.783Z,8.86
2022-10-03T21:41:50.432Z,8.87
2022-10-03T21:45:24.006Z,8.85
2022-10-03T21:48:36.408Z,8.81
2022-10-03T21:51:40.407Z,8.78
2022-10-03T21:54:32.353Z,8.77
2022-10-03T21:57:19.701Z,8.76
2022-10-03T21:59:55.730Z,8.74
2022-10-03T22:02:51.153Z,8.74
2022-10-03T22:05:54.717Z,8.73
2022-10-03T22:08:34.313Z,8.73
2022-10-03T22:11:27.856Z,8.72
2022-10-03T22:14:35.043Z,8.72
2022-10-03T22:17:20.455Z,8.72
2022-10-03T22:20:24.841Z,8.74
2022-10-03T22:23:29.678Z,8.74
2022-10-03T22:27:12.715Z,8.73
2022-10-03T22:30:04.223Z,8.72
2022-10-03T22:33:28.386Z,8.72
2022-10-03T22:36:04.605Z,8.70
2022-10-03T22:38:44.235Z,8.69
2022-10-03T22:41:51.716Z,8.66
2022-10-03T22:44:26.814Z,8.62
2022-10-03T22:47:12.662Z,8.60
2022-10-03T22:50:12.880Z,8.60
2022-10-03T22:53:15.640Z,8.57
2022-10-03T22:56:04.292Z,8.58
2022-10-03T22:58:32.264Z,8.60
2022-10-03T23:01:15.219Z,8.60
2022-10-03T23:03:48.349Z,8.59
2022-10-03T23:06:43.725Z,8.58
2022-10-03T23:09:34.908Z,8.59
2022-10-03T23:12:28.890Z,8.62
2022-10-03T23:15:03.703Z,8.65
2022-10-03T23:18:31.470Z,8.66
2022-10-03T23:21:21.749Z,8.70
2022-10-03T23:23:55.571Z,8.73
2022-10-03T23:26:44.934Z,8.75
2022-10-03T23:29:15.179Z,8.78
2022-10-03T23:32:10.177Z,8.79
2022-10-03T23:34:50.338Z,8.82
2022-10-03T23:37:41.315Z,8.85
2022-10-03T23:40:15.889Z,8.90
2022-10-03T23:43:31.955Z,8.93
2022-10-03T23:46:36.049Z,8.97
2022-10-03T23:49:17.559Z,9.01
2022-10-03T23:52:03.400Z,9.04
2022-10-03T23:54:37.165Z,9.05
2022-10-03T23:57:19.284Z,9.07
